UAE724G OMDB-EGLL
Flight info
| Callsign | UAE724G |
|---|---|
| Flight time | N/A |
| Altitude | 360 |
| Route | SENPA2F SENPA N571 ALPOB L768 ULADA Q143 MEDGO N697 SIBLI/N0502F380 N697 HIL A788 HLF L604 WEJ L677 CVO L617 NOZ L551 ANTAR UN133 KPC DCT FSK/N0498F400 DCT DISOR DCT LONTA UL608 DOLEV DCT BOSNA DCT MARIL DCT OKSIG DCT KUSIB DCT GORPA DCT DOL DCT NIPEL DCT MODSA DCT BABEG DCT LIRSU DCT ARCKY DCT BUB L608 LOGAN LOGAN2H |
| Aircraft | A388/J-V/N |
Departure
| Time | N/A |
|---|---|
| Airport | Dubai International Airport (OMDB) |
Arrival
| Time | 2026-05-01 14:02 |
|---|---|
| Airport | London Heathrow Airport (EGLL) |
| Time | Latitude | Longitude | Altitude | Speed | Heading |
|---|---|---|---|---|---|
| 2026-05-01 11:16 | 40.68804 | 23.31919 | 36014 ft | 483 kts | 329° |
| 2026-05-01 11:17 | 40.74573 | 23.27346 | 36005 ft | 484 kts | 329° |
| 2026-05-01 11:17 | 40.80342 | 23.22764 | 35996 ft | 484 kts | 329° |
| 2026-05-01 11:18 | 40.86113 | 23.18171 | 35995 ft | 484 kts | 328° |
| 2026-05-01 11:18 | 40.91886 | 23.13569 | 35996 ft | 485 kts | 328° |
| 2026-05-01 11:19 | 40.97662 | 23.08959 | 35997 ft | 485 kts | 328° |
| 2026-05-01 11:19 | 41.03437 | 23.04339 | 36003 ft | 485 kts | 328° |
| 2026-05-01 11:20 | 41.08953 | 22.99223 | 36004 ft | 484 kts | 320° |
| 2026-05-01 11:20 | 41.13776 | 22.93001 | 35998 ft | 484 kts | 310° |
| 2026-05-01 11:21 | 41.18116 | 22.86170 | 36002 ft | 484 kts | 310° |
| 2026-05-01 11:21 | 41.22482 | 22.79360 | 36012 ft | 484 kts | 310° |
| 2026-05-01 11:22 | 41.26861 | 22.72571 | 36010 ft | 484 kts | 312° |
| 2026-05-01 11:22 | 41.31388 | 22.66029 | 36007 ft | 484 kts | 313° |
| 2026-05-01 11:23 | 41.35944 | 22.59426 | 35999 ft | 484 kts | 312° |
| 2026-05-01 11:23 | 41.40473 | 22.52790 | 35995 ft | 484 kts | 312° |
| 2026-05-01 11:24 | 41.44993 | 22.46140 | 35982 ft | 485 kts | 312° |
| 2026-05-01 11:25 | 41.51777 | 22.36130 | 36002 ft | 485 kts | 312° |
| 2026-05-01 11:25 | 41.58551 | 22.26101 | 35999 ft | 485 kts | 311° |
| 2026-05-01 11:26 | 41.65316 | 22.16050 | 36003 ft | 485 kts | 311° |
| 2026-05-01 11:27 | 41.69820 | 22.09341 | 36011 ft | 485 kts | 311° |
| 2026-05-01 11:27 | 41.74319 | 22.02624 | 36010 ft | 484 kts | 311° |
| 2026-05-01 11:28 | 41.78811 | 21.95902 | 36011 ft | 484 kts | 311° |
| 2026-05-01 11:28 | 41.83301 | 21.89166 | 36002 ft | 484 kts | 311° |
| 2026-05-01 11:29 | 41.90027 | 21.79050 | 35999 ft | 484 kts | 311° |
| 2026-05-01 11:30 | 41.96717 | 21.68953 | 36003 ft | 484 kts | 311° |
| 2026-05-01 11:30 | 42.01220 | 21.62136 | 36007 ft | 484 kts | 311° |
| 2026-05-01 11:31 | 42.05686 | 21.55360 | 35982 ft | 485 kts | 311° |
| 2026-05-01 11:31 | 42.10127 | 21.48608 | 35981 ft | 485 kts | 311° |
| 2026-05-01 11:32 | 42.14595 | 21.41799 | 35998 ft | 485 kts | 311° |
| 2026-05-01 11:32 | 42.19031 | 21.34930 | 35971 ft | 486 kts | 310° |
| 2026-05-01 11:33 | 42.23393 | 21.27966 | 35995 ft | 486 kts | 310° |
| 2026-05-01 11:33 | 42.27759 | 21.21005 | 36008 ft | 486 kts | 310° |
| 2026-05-01 11:34 | 42.32127 | 21.14044 | 36005 ft | 486 kts | 310° |
| 2026-05-01 11:34 | 42.36495 | 21.07072 | 35996 ft | 486 kts | 310° |
| 2026-05-01 11:35 | 42.40863 | 21.00082 | 35995 ft | 486 kts | 310° |
| 2026-05-01 11:35 | 42.45227 | 20.93082 | 36003 ft | 486 kts | 310° |
| 2026-05-01 11:36 | 42.49587 | 20.86072 | 35999 ft | 487 kts | 310° |
| 2026-05-01 11:36 | 42.53916 | 20.79093 | 36010 ft | 487 kts | 310° |
| 2026-05-01 11:37 | 42.58264 | 20.72069 | 36008 ft | 486 kts | 310° |
| 2026-05-01 11:37 | 42.62612 | 20.65028 | 36014 ft | 486 kts | 310° |
| 2026-05-01 11:38 | 42.66952 | 20.57984 | 36016 ft | 486 kts | 310° |
| 2026-05-01 11:38 | 42.71285 | 20.50934 | 36015 ft | 486 kts | 309° |
| 2026-05-01 11:39 | 42.75610 | 20.43880 | 36015 ft | 486 kts | 309° |
| 2026-05-01 11:39 | 42.79936 | 20.36806 | 35960 ft | 487 kts | 309° |
| 2026-05-01 11:40 | 42.84271 | 20.29708 | 35954 ft | 488 kts | 310° |
| 2026-05-01 11:40 | 42.88675 | 20.22680 | 35985 ft | 487 kts | 310° |
| 2026-05-01 11:41 | 42.93096 | 20.15663 | 35999 ft | 488 kts | 310° |
| 2026-05-01 11:41 | 42.97511 | 20.08613 | 35976 ft | 489 kts | 310° |
| 2026-05-01 11:42 | 43.01921 | 20.01542 | 35992 ft | 489 kts | 310° |
| 2026-05-01 11:42 | 43.06330 | 19.94453 | 36002 ft | 489 kts | 310° |
| 2026-05-01 11:43 | 43.10733 | 19.87356 | 36001 ft | 490 kts | 310° |
| 2026-05-01 11:43 | 43.15137 | 19.80240 | 36000 ft | 490 kts | 310° |
| 2026-05-01 11:44 | 43.21727 | 19.69560 | 36024 ft | 489 kts | 310° |
| 2026-05-01 11:44 | 43.26115 | 19.62427 | 36008 ft | 489 kts | 310° |
| 2026-05-01 11:45 | 43.30497 | 19.55286 | 36001 ft | 489 kts | 310° |
| 2026-05-01 11:45 | 43.34878 | 19.48129 | 35998 ft | 489 kts | 310° |
| 2026-05-01 11:46 | 43.39258 | 19.40956 | 35991 ft | 490 kts | 310° |
| 2026-05-01 11:46 | 43.43602 | 19.33825 | 35997 ft | 490 kts | 310° |
| 2026-05-01 11:47 | 43.47968 | 19.26641 | 36017 ft | 489 kts | 309° |
| 2026-05-01 11:47 | 43.52325 | 19.19451 | 36009 ft | 489 kts | 309° |
| 2026-05-01 11:48 | 43.56680 | 19.12249 | 36000 ft | 489 kts | 309° |
| 2026-05-01 11:48 | 43.61034 | 19.05030 | 36009 ft | 489 kts | 309° |
| 2026-05-01 11:49 | 43.65377 | 18.97811 | 36026 ft | 488 kts | 309° |
| 2026-05-01 11:49 | 43.69707 | 18.90597 | 36015 ft | 488 kts | 309° |
| 2026-05-01 11:50 | 43.74036 | 18.83365 | 35998 ft | 488 kts | 309° |
| 2026-05-01 11:50 | 43.78359 | 18.76125 | 36007 ft | 488 kts | 309° |
| 2026-05-01 11:51 | 43.82673 | 18.68882 | 36005 ft | 488 kts | 309° |
| 2026-05-01 11:51 | 43.86990 | 18.61618 | 35985 ft | 488 kts | 309° |
| 2026-05-01 11:52 | 43.91297 | 18.54350 | 35985 ft | 488 kts | 309° |
| 2026-05-01 11:52 | 43.95606 | 18.47061 | 35994 ft | 488 kts | 309° |
| 2026-05-01 11:53 | 43.99905 | 18.39771 | 36010 ft | 488 kts | 309° |
| 2026-05-01 11:53 | 44.04204 | 18.32462 | 36007 ft | 488 kts | 309° |
| 2026-05-01 11:54 | 44.08492 | 18.25154 | 36007 ft | 488 kts | 309° |
| 2026-05-01 11:54 | 44.12777 | 18.17832 | 36018 ft | 487 kts | 309° |
| 2026-05-01 11:55 | 44.17053 | 18.10506 | 36018 ft | 487 kts | 309° |
| 2026-05-01 11:55 | 44.21322 | 18.03176 | 36013 ft | 487 kts | 309° |
| 2026-05-01 11:56 | 44.24867 | 17.97073 | 36007 ft | 487 kts | 309° |
| 2026-05-01 11:56 | 44.29125 | 17.89724 | 36018 ft | 486 kts | 309° |
| 2026-05-01 11:57 | 44.33377 | 17.82372 | 36002 ft | 486 kts | 309° |
| 2026-05-01 11:57 | 44.37629 | 17.75009 | 35977 ft | 487 kts | 309° |
| 2026-05-01 11:58 | 44.42041 | 17.67829 | 35980 ft | 487 kts | 311° |
| 2026-05-01 11:59 | 44.48728 | 17.57123 | 36007 ft | 487 kts | 310° |
| 2026-05-01 11:59 | 44.53157 | 17.49942 | 36007 ft | 487 kts | 310° |
| 2026-05-01 12:00 | 44.59778 | 17.39157 | 36018 ft | 486 kts | 310° |
| 2026-05-01 12:01 | 44.66391 | 17.28387 | 36017 ft | 485 kts | 311° |
| 2026-05-01 12:01 | 44.70823 | 17.21237 | 36013 ft | 485 kts | 311° |
| 2026-05-01 12:02 | 44.75248 | 17.14070 | 36013 ft | 485 kts | 310° |
| 2026-05-01 12:02 | 44.79632 | 17.06944 | 36009 ft | 485 kts | 310° |
| 2026-05-01 12:03 | 44.84037 | 16.99765 | 36012 ft | 484 kts | 310° |
| 2026-05-01 12:03 | 44.88356 | 16.92488 | 36011 ft | 484 kts | 309° |
| 2026-05-01 12:04 | 44.92634 | 16.85170 | 36011 ft | 483 kts | 309° |
| 2026-05-01 12:04 | 44.96913 | 16.77867 | 36006 ft | 483 kts | 309° |
| 2026-05-01 12:05 | 45.01199 | 16.70548 | 36005 ft | 483 kts | 309° |
| 2026-05-01 12:05 | 45.07609 | 16.59566 | 35998 ft | 483 kts | 309° |
| 2026-05-01 12:06 | 45.11872 | 16.52239 | 35999 ft | 483 kts | 309° |
| 2026-05-01 12:06 | 45.16131 | 16.44889 | 36002 ft | 482 kts | 309° |
| 2026-05-01 12:07 | 45.20339 | 16.37482 | 35997 ft | 482 kts | 308° |
| 2026-05-01 12:07 | 45.24541 | 16.30057 | 35997 ft | 482 kts | 308° |
| 2026-05-01 12:08 | 45.28738 | 16.22635 | 36000 ft | 482 kts | 308° |
| 2026-05-01 12:08 | 45.32930 | 16.15205 | 35996 ft | 482 kts | 308° |
| 2026-05-01 12:09 | 45.37119 | 16.07764 | 36002 ft | 482 kts | 308° |
| 2026-05-01 12:09 | 45.41304 | 16.00308 | 35996 ft | 482 kts | 308° |
| 2026-05-01 12:10 | 45.47540 | 15.89162 | 35996 ft | 482 kts | 308° |
| 2026-05-01 12:11 | 45.53820 | 15.77894 | 36003 ft | 482 kts | 308° |
| 2026-05-01 12:11 | 45.57952 | 15.70454 | 35998 ft | 482 kts | 308° |
| 2026-05-01 12:12 | 45.62107 | 15.62953 | 36001 ft | 482 kts | 308° |
| 2026-05-01 12:12 | 45.66261 | 15.55436 | 35998 ft | 482 kts | 308° |
| 2026-05-01 12:13 | 45.70405 | 15.47915 | 35995 ft | 482 kts | 308° |
| 2026-05-01 12:13 | 45.74549 | 15.40375 | 35990 ft | 482 kts | 308° |
| 2026-05-01 12:14 | 45.78686 | 15.32828 | 35976 ft | 483 kts | 308° |
| 2026-05-01 12:14 | 45.82819 | 15.25251 | 36002 ft | 482 kts | 308° |
| 2026-05-01 12:15 | 45.86948 | 15.17659 | 35982 ft | 483 kts | 308° |
| 2026-05-01 12:15 | 45.91085 | 15.10036 | 35997 ft | 483 kts | 308° |
| 2026-05-01 12:16 | 45.95207 | 15.02418 | 36003 ft | 483 kts | 308° |
| 2026-05-01 12:16 | 45.99335 | 14.94772 | 36003 ft | 484 kts | 308° |
| 2026-05-01 12:17 | 46.03459 | 14.87110 | 36007 ft | 484 kts | 307° |
| 2026-05-01 12:17 | 46.07580 | 14.79434 | 36012 ft | 484 kts | 307° |
| 2026-05-01 12:18 | 46.11731 | 14.71785 | 35996 ft | 485 kts | 308° |
| 2026-05-01 12:18 | 46.15926 | 14.64182 | 36015 ft | 485 kts | 308° |
| 2026-05-01 12:19 | 46.20109 | 14.56557 | 36012 ft | 485 kts | 308° |
| 2026-05-01 12:19 | 46.24291 | 14.48896 | 36012 ft | 485 kts | 308° |
| 2026-05-01 12:20 | 46.28461 | 14.41231 | 36012 ft | 485 kts | 308° |
| 2026-05-01 12:20 | 46.32603 | 14.33600 | 36007 ft | 485 kts | 308° |
| 2026-05-01 12:21 | 46.36767 | 14.25907 | 36001 ft | 486 kts | 308° |
| 2026-05-01 12:21 | 46.40962 | 14.18135 | 35982 ft | 487 kts | 308° |
| 2026-05-01 12:22 | 46.45127 | 14.10394 | 35983 ft | 487 kts | 308° |
| 2026-05-01 12:22 | 46.49313 | 14.02744 | 35974 ft | 488 kts | 311° |
| 2026-05-01 12:23 | 46.54005 | 13.95640 | 35997 ft | 487 kts | 314° |
| 2026-05-01 12:23 | 46.58688 | 13.88526 | 36014 ft | 487 kts | 313° |
| 2026-05-01 12:24 | 46.63364 | 13.81406 | 36016 ft | 487 kts | 313° |
| 2026-05-01 12:24 | 46.68044 | 13.74267 | 36013 ft | 487 kts | 313° |
| 2026-05-01 12:25 | 46.75053 | 13.63540 | 36002 ft | 487 kts | 313° |
| 2026-05-01 12:26 | 46.79721 | 13.56372 | 36012 ft | 487 kts | 313° |
| 2026-05-01 12:26 | 46.86707 | 13.45608 | 35985 ft | 487 kts | 313° |
| 2026-05-01 12:27 | 46.93720 | 13.34758 | 36009 ft | 493 kts | 313° |
| 2026-05-01 12:28 | 47.00837 | 13.23702 | 36001 ft | 499 kts | 313° |
| 2026-05-01 12:29 | 47.07906 | 13.12675 | 36000 ft | 493 kts | 313° |
| 2026-05-01 12:29 | 47.14894 | 13.01729 | 35979 ft | 493 kts | 313° |
| 2026-05-01 12:30 | 47.21911 | 12.90693 | 36004 ft | 494 kts | 313° |
| 2026-05-01 12:31 | 47.26603 | 12.83287 | 36014 ft | 494 kts | 313° |
| 2026-05-01 12:31 | 47.31272 | 12.75896 | 36020 ft | 493 kts | 313° |
| 2026-05-01 12:32 | 47.35952 | 12.68469 | 36016 ft | 494 kts | 313° |
| 2026-05-01 12:32 | 47.42947 | 12.57328 | 36021 ft | 493 kts | 313° |
| 2026-05-01 12:33 | 47.47604 | 12.49884 | 36030 ft | 493 kts | 313° |
| 2026-05-01 12:33 | 47.52248 | 12.42440 | 36032 ft | 492 kts | 312° |
| 2026-05-01 12:34 | 47.56881 | 12.34994 | 36003 ft | 492 kts | 312° |
| 2026-05-01 12:34 | 47.61515 | 12.27525 | 35999 ft | 492 kts | 312° |
| 2026-05-01 12:35 | 47.65703 | 12.19550 | 36030 ft | 490 kts | 303° |
| 2026-05-01 12:35 | 47.69264 | 12.11006 | 36007 ft | 490 kts | 302° |
| 2026-05-01 12:36 | 47.72862 | 12.02470 | 36003 ft | 490 kts | 302° |
| 2026-05-01 12:36 | 47.76466 | 11.93855 | 36011 ft | 489 kts | 301° |
| 2026-05-01 12:37 | 47.80038 | 11.85264 | 36016 ft | 488 kts | 301° |
| 2026-05-01 12:37 | 47.83597 | 11.76674 | 36012 ft | 488 kts | 301° |
| 2026-05-01 12:38 | 47.87147 | 11.68077 | 36011 ft | 487 kts | 301° |
| 2026-05-01 12:38 | 47.90686 | 11.59481 | 36007 ft | 487 kts | 301° |
| 2026-05-01 12:39 | 47.94220 | 11.50869 | 36008 ft | 486 kts | 301° |
| 2026-05-01 12:39 | 47.97741 | 11.42261 | 36004 ft | 486 kts | 301° |
| 2026-05-01 12:40 | 48.01257 | 11.33639 | 36008 ft | 486 kts | 301° |
| 2026-05-01 12:40 | 48.04762 | 11.25014 | 36004 ft | 485 kts | 301° |
| 2026-05-01 12:41 | 48.08259 | 11.16384 | 35999 ft | 485 kts | 301° |
| 2026-05-01 12:41 | 48.11744 | 11.07754 | 36002 ft | 485 kts | 301° |
| 2026-05-01 12:42 | 48.15225 | 10.99109 | 36000 ft | 485 kts | 301° |
| 2026-05-01 12:42 | 48.18699 | 10.90449 | 36000 ft | 485 kts | 301° |
| 2026-05-01 12:43 | 48.22162 | 10.81791 | 35998 ft | 484 kts | 301° |
| 2026-05-01 12:43 | 48.25596 | 10.73177 | 35998 ft | 484 kts | 301° |
| 2026-05-01 12:44 | 48.28848 | 10.64995 | 35995 ft | 484 kts | 301° |
| 2026-05-01 12:45 | 48.35731 | 10.47593 | 35996 ft | 484 kts | 300° |
| 2026-05-01 12:45 | 48.39160 | 10.38882 | 35999 ft | 484 kts | 300° |
| 2026-05-01 12:46 | 48.42580 | 10.30165 | 35998 ft | 484 kts | 300° |
| 2026-05-01 12:46 | 48.45419 | 10.22907 | 36000 ft | 484 kts | 300° |
| 2026-05-01 12:47 | 48.48829 | 10.14163 | 36000 ft | 484 kts | 300° |
| 2026-05-01 12:47 | 48.52230 | 10.05413 | 35997 ft | 484 kts | 300° |
| 2026-05-01 12:48 | 48.55629 | 9.96641 | 35995 ft | 484 kts | 300° |
| 2026-05-01 12:48 | 48.59020 | 9.87859 | 35998 ft | 484 kts | 300° |
| 2026-05-01 12:49 | 48.62405 | 9.79062 | 36001 ft | 484 kts | 300° |
| 2026-05-01 12:49 | 48.65783 | 9.70261 | 36002 ft | 484 kts | 300° |
| 2026-05-01 12:50 | 48.69532 | 9.61818 | 36002 ft | 484 kts | 307° |
| 2026-05-01 12:50 | 48.73599 | 9.53710 | 36000 ft | 484 kts | 307° |
| 2026-05-01 12:51 | 48.77650 | 9.45581 | 35999 ft | 484 kts | 307° |
| 2026-05-01 12:52 | 48.83720 | 9.33333 | 36003 ft | 484 kts | 307° |
| 2026-05-01 12:52 | 48.89768 | 9.21071 | 36003 ft | 483 kts | 307° |
| 2026-05-01 12:53 | 48.95799 | 9.08786 | 36007 ft | 483 kts | 306° |
| 2026-05-01 12:54 | 48.99813 | 9.00580 | 36005 ft | 483 kts | 306° |
| 2026-05-01 12:54 | 49.05797 | 8.88296 | 36005 ft | 483 kts | 306° |
| 2026-05-01 12:55 | 49.11790 | 8.75939 | 36007 ft | 483 kts | 306° |
| 2026-05-01 12:56 | 49.15779 | 8.67683 | 36006 ft | 483 kts | 306° |
| 2026-05-01 12:56 | 49.19759 | 8.59419 | 36006 ft | 483 kts | 306° |
| 2026-05-01 12:57 | 49.23729 | 8.51151 | 36004 ft | 482 kts | 306° |
| 2026-05-01 12:57 | 49.29676 | 8.38717 | 36006 ft | 482 kts | 306° |
| 2026-05-01 12:58 | 49.33628 | 8.30421 | 36005 ft | 482 kts | 306° |
| 2026-05-01 12:59 | 49.39549 | 8.17945 | 36003 ft | 482 kts | 306° |
| 2026-05-01 12:59 | 49.45454 | 8.05443 | 35999 ft | 482 kts | 306° |
| 2026-05-01 13:00 | 49.51343 | 7.92918 | 35994 ft | 482 kts | 306° |
| 2026-05-01 13:01 | 49.57224 | 7.80350 | 35990 ft | 482 kts | 306° |
| 2026-05-01 13:02 | 49.63095 | 7.67744 | 35997 ft | 482 kts | 305° |
| 2026-05-01 13:07 | 50.05749 | 6.74315 | 35999 ft | 483 kts | 304° |
| 2026-05-01 13:08 | 50.09596 | 6.65725 | 35996 ft | 483 kts | 304° |
| 2026-05-01 13:08 | 50.13429 | 6.57138 | 35998 ft | 483 kts | 304° |
| 2026-05-01 13:09 | 50.17269 | 6.48518 | 35995 ft | 484 kts | 304° |
| 2026-05-01 13:09 | 50.20702 | 6.39507 | 35998 ft | 483 kts | 298° |
| 2026-05-01 13:10 | 50.23930 | 6.30297 | 35995 ft | 483 kts | 298° |
| 2026-05-01 13:10 | 50.27173 | 6.21093 | 35997 ft | 484 kts | 298° |
| 2026-05-01 13:11 | 50.30400 | 6.11857 | 35997 ft | 484 kts | 299° |
| 2026-05-01 13:11 | 50.33869 | 6.02851 | 35997 ft | 484 kts | 302° |
| 2026-05-01 13:12 | 50.37462 | 5.93779 | 36001 ft | 500 kts | 301° |
| 2026-05-01 13:12 | 50.41084 | 5.84462 | 36001 ft | 499 kts | 301° |
| 2026-05-01 13:13 | 50.44685 | 5.75114 | 35999 ft | 501 kts | 301° |
| 2026-05-01 13:13 | 50.48269 | 5.65770 | 36001 ft | 499 kts | 301° |
| 2026-05-01 13:14 | 50.51843 | 5.56425 | 35997 ft | 498 kts | 301° |
| 2026-05-01 13:14 | 50.55380 | 5.47140 | 35984 ft | 498 kts | 301° |
| 2026-05-01 13:15 | 50.58934 | 5.37780 | 35995 ft | 498 kts | 301° |
| 2026-05-01 13:15 | 50.62475 | 5.28420 | 35992 ft | 498 kts | 301° |
| 2026-05-01 13:16 | 50.66018 | 5.19020 | 36000 ft | 499 kts | 300° |
| 2026-05-01 13:16 | 50.69551 | 5.09612 | 36002 ft | 499 kts | 300° |
| 2026-05-01 13:17 | 50.76602 | 4.90731 | 36006 ft | 499 kts | 300° |
| 2026-05-01 13:18 | 50.81868 | 4.76542 | 36006 ft | 499 kts | 300° |
| 2026-05-01 13:18 | 50.85369 | 4.67062 | 36005 ft | 499 kts | 300° |
| 2026-05-01 13:19 | 50.88860 | 4.57577 | 36005 ft | 498 kts | 300° |
| 2026-05-01 13:20 | 50.94193 | 4.43440 | 35950 ft | 498 kts | 301° |
| 2026-05-01 13:20 | 50.96008 | 4.38758 | 35725 ft | 498 kts | 301° |
| 2026-05-01 13:20 | 50.97819 | 4.34063 | 35468 ft | 498 kts | 301° |
| 2026-05-01 13:21 | 51.01413 | 4.24678 | 34970 ft | 499 kts | 301° |
| 2026-05-01 13:21 | 51.03210 | 4.19963 | 34716 ft | 499 kts | 301° |
| 2026-05-01 13:21 | 51.05004 | 4.15244 | 34476 ft | 499 kts | 301° |
| 2026-05-01 13:21 | 51.06796 | 4.10524 | 34250 ft | 495 kts | 301° |
| 2026-05-01 13:22 | 51.08552 | 4.05887 | 34079 ft | 483 kts | 301° |
| 2026-05-01 13:22 | 51.10268 | 4.01349 | 33727 ft | 475 kts | 301° |
| 2026-05-01 13:22 | 51.11962 | 3.96861 | 33481 ft | 473 kts | 301° |
| 2026-05-01 13:22 | 51.13656 | 3.92367 | 33230 ft | 474 kts | 301° |
| 2026-05-01 13:23 | 51.15352 | 3.87858 | 32979 ft | 473 kts | 301° |
| 2026-05-01 13:23 | 51.17036 | 3.83372 | 32731 ft | 471 kts | 301° |
| 2026-05-01 13:23 | 51.18714 | 3.78896 | 32493 ft | 469 kts | 301° |
| 2026-05-01 13:23 | 51.20381 | 3.74441 | 32238 ft | 467 kts | 301° |
| 2026-05-01 13:24 | 51.22041 | 3.69999 | 31980 ft | 466 kts | 301° |
| 2026-05-01 13:24 | 51.23693 | 3.65569 | 31735 ft | 464 kts | 301° |
| 2026-05-01 13:24 | 51.25339 | 3.61148 | 31485 ft | 462 kts | 300° |
| 2026-05-01 13:25 | 51.28599 | 3.52358 | 30987 ft | 458 kts | 300° |
| 2026-05-01 13:25 | 51.30218 | 3.47981 | 30746 ft | 457 kts | 300° |
| 2026-05-01 13:25 | 51.31830 | 3.43618 | 30489 ft | 455 kts | 300° |
| 2026-05-01 13:25 | 51.33431 | 3.39274 | 30229 ft | 453 kts | 300° |
| 2026-05-01 13:26 | 51.34916 | 3.34845 | 29988 ft | 451 kts | 294° |
| 2026-05-01 13:26 | 51.36080 | 3.30199 | 29747 ft | 449 kts | 290° |
| 2026-05-01 13:26 | 51.37173 | 3.25525 | 29496 ft | 448 kts | 290° |
| 2026-05-01 13:26 | 51.38278 | 3.20876 | 29241 ft | 446 kts | 291° |
| 2026-05-01 13:27 | 51.39381 | 3.16245 | 28993 ft | 444 kts | 290° |
| 2026-05-01 13:27 | 51.40477 | 3.11626 | 28740 ft | 442 kts | 290° |
| 2026-05-01 13:27 | 51.42641 | 3.02448 | 28243 ft | 439 kts | 290° |
| 2026-05-01 13:28 | 51.44782 | 2.93320 | 27998 ft | 437 kts | 290° |
| 2026-05-01 13:28 | 51.45836 | 2.88810 | 28002 ft | 438 kts | 290° |
| 2026-05-01 13:29 | 51.48611 | 2.69853 | 27630 ft | 435 kts | 281° |
| 2026-05-01 13:30 | 51.51027 | 2.51300 | 26930 ft | 404 kts | 282° |
| 2026-05-01 13:31 | 51.52144 | 2.42754 | 26703 ft | 379 kts | 282° |
| 2026-05-01 13:31 | 51.53716 | 2.30628 | 26007 ft | 367 kts | 282° |
| 2026-05-01 13:32 | 51.54747 | 2.22615 | 25508 ft | 365 kts | 281° |
| 2026-05-01 13:33 | 51.56268 | 2.10711 | 24768 ft | 360 kts | 281° |
| 2026-05-01 13:33 | 51.57266 | 2.02852 | 24256 ft | 358 kts | 281° |
| 2026-05-01 13:34 | 51.58250 | 1.95051 | 23757 ft | 355 kts | 281° |
| 2026-05-01 13:34 | 51.59221 | 1.87309 | 23249 ft | 352 kts | 281° |
| 2026-05-01 13:35 | 51.60019 | 1.80917 | 22841 ft | 350 kts | 281° |
| 2026-05-01 13:35 | 51.60495 | 1.77090 | 22591 ft | 348 kts | 281° |
| 2026-05-01 13:35 | 51.61437 | 1.69483 | 22092 ft | 345 kts | 281° |
| 2026-05-01 13:36 | 51.61903 | 1.65699 | 21838 ft | 344 kts | 281° |
| 2026-05-01 13:36 | 51.62366 | 1.61934 | 21592 ft | 343 kts | 281° |
| 2026-05-01 13:36 | 51.63284 | 1.54435 | 21094 ft | 340 kts | 281° |
| 2026-05-01 13:37 | 51.63738 | 1.50711 | 20842 ft | 339 kts | 281° |
| 2026-05-01 13:37 | 51.64190 | 1.46995 | 20594 ft | 337 kts | 281° |
| 2026-05-01 13:37 | 51.64639 | 1.43295 | 20343 ft | 336 kts | 281° |
| 2026-05-01 13:37 | 51.65085 | 1.39605 | 20090 ft | 335 kts | 281° |
| 2026-05-01 13:38 | 51.65967 | 1.32280 | 19589 ft | 332 kts | 281° |
| 2026-05-01 13:38 | 51.66404 | 1.28634 | 19333 ft | 331 kts | 281° |
| 2026-05-01 13:38 | 51.66839 | 1.25000 | 19091 ft | 329 kts | 281° |
| 2026-05-01 13:39 | 51.67270 | 1.21386 | 18847 ft | 328 kts | 281° |
| 2026-05-01 13:39 | 51.67699 | 1.17776 | 18590 ft | 327 kts | 281° |
| 2026-05-01 13:39 | 51.68124 | 1.14188 | 18342 ft | 326 kts | 281° |
| 2026-05-01 13:39 | 51.68548 | 1.10604 | 17976 ft | 327 kts | 281° |
| 2026-05-01 13:40 | 51.68973 | 1.07004 | 17521 ft | 327 kts | 281° |
| 2026-05-01 13:40 | 51.69395 | 1.03412 | 17251 ft | 322 kts | 281° |
| 2026-05-01 13:40 | 51.69807 | 0.99901 | 16930 ft | 318 kts | 281° |
| 2026-05-01 13:40 | 51.70175 | 0.96387 | 16550 ft | 317 kts | 276° |
| 2026-05-01 13:41 | 51.70239 | 0.92856 | 16187 ft | 315 kts | 267° |
| 2026-05-01 13:41 | 51.70004 | 0.89403 | 15818 ft | 313 kts | 263° |
| 2026-05-01 13:41 | 51.69739 | 0.85883 | 15454 ft | 312 kts | 263° |
| 2026-05-01 13:41 | 51.69499 | 0.82429 | 15101 ft | 310 kts | 264° |
| 2026-05-01 13:42 | 51.69263 | 0.78982 | 14743 ft | 308 kts | 264° |
| 2026-05-01 13:42 | 51.69026 | 0.75558 | 14394 ft | 306 kts | 263° |
| 2026-05-01 13:42 | 51.68788 | 0.72159 | 14033 ft | 305 kts | 263° |
| 2026-05-01 13:42 | 51.68548 | 0.68776 | 13675 ft | 303 kts | 263° |
| 2026-05-01 13:43 | 51.68308 | 0.65408 | 13318 ft | 301 kts | 263° |
| 2026-05-01 13:43 | 51.68069 | 0.62064 | 12966 ft | 300 kts | 263° |
| 2026-05-01 13:43 | 51.67829 | 0.58733 | 12602 ft | 298 kts | 263° |
| 2026-05-01 13:43 | 51.67593 | 0.55476 | 12239 ft | 297 kts | 263° |
| 2026-05-01 13:44 | 51.67350 | 0.52129 | 11881 ft | 295 kts | 263° |
| 2026-05-01 13:44 | 51.67116 | 0.48902 | 11522 ft | 294 kts | 263° |
| 2026-05-01 13:44 | 51.66879 | 0.45654 | 11163 ft | 292 kts | 263° |
| 2026-05-01 13:44 | 51.66639 | 0.42407 | 10802 ft | 291 kts | 263° |
| 2026-05-01 13:45 | 51.66401 | 0.39188 | 10444 ft | 289 kts | 263° |
| 2026-05-01 13:45 | 51.66164 | 0.35985 | 10080 ft | 287 kts | 263° |
| 2026-05-01 13:45 | 51.65928 | 0.32800 | 9714 ft | 286 kts | 263° |
| 2026-05-01 13:45 | 51.65695 | 0.29672 | 9575 ft | 276 kts | 263° |
| 2026-05-01 13:46 | 51.65470 | 0.26663 | 9483 ft | 265 kts | 263° |
| 2026-05-01 13:46 | 51.65252 | 0.23769 | 9402 ft | 255 kts | 263° |
| 2026-05-01 13:46 | 51.65041 | 0.20961 | 9199 ft | 251 kts | 263° |
| 2026-05-01 13:46 | 51.64832 | 0.18200 | 8924 ft | 250 kts | 263° |
| 2026-05-01 13:47 | 51.64476 | 0.15465 | 8621 ft | 249 kts | 247° |
| 2026-05-01 13:47 | 51.63727 | 0.12944 | 8325 ft | 249 kts | 253° |
| 2026-05-01 13:47 | 51.63412 | 0.10210 | 8062 ft | 250 kts | 261° |
| 2026-05-01 13:47 | 51.63141 | 0.07466 | 7997 ft | 246 kts | 261° |
| 2026-05-01 13:48 | 51.62871 | 0.04755 | 8004 ft | 246 kts | 261° |
| 2026-05-01 13:48 | 51.62600 | 0.02030 | 8001 ft | 247 kts | 261° |
| 2026-05-01 13:48 | 51.62413 | -0.00713 | 8000 ft | 247 kts | 266° |
| 2026-05-01 13:48 | 51.62292 | -0.03463 | 7974 ft | 246 kts | 266° |
| 2026-05-01 13:49 | 51.62168 | -0.06243 | 7759 ft | 251 kts | 266° |
| 2026-05-01 13:49 | 51.62044 | -0.09026 | 7505 ft | 248 kts | 266° |
| 2026-05-01 13:49 | 51.61920 | -0.11791 | 7257 ft | 246 kts | 266° |
| 2026-05-01 13:49 | 51.61798 | -0.14524 | 7034 ft | 244 kts | 266° |
| 2026-05-01 13:50 | 51.61677 | -0.17232 | 6992 ft | 242 kts | 266° |
| 2026-05-01 13:50 | 51.61555 | -0.19939 | 7002 ft | 243 kts | 266° |
| 2026-05-01 13:50 | 51.61433 | -0.22655 | 6996 ft | 244 kts | 266° |
| 2026-05-01 13:50 | 51.61311 | -0.25374 | 6998 ft | 244 kts | 266° |
| 2026-05-01 13:51 | 51.61187 | -0.28090 | 6998 ft | 243 kts | 266° |
| 2026-05-01 13:51 | 51.61064 | -0.30805 | 7005 ft | 243 kts | 266° |
| 2026-05-01 13:51 | 51.60940 | -0.33518 | 6998 ft | 243 kts | 266° |
| 2026-05-01 13:51 | 51.60816 | -0.36235 | 7005 ft | 243 kts | 266° |
| 2026-05-01 13:52 | 51.60691 | -0.38946 | 6986 ft | 244 kts | 266° |
| 2026-05-01 13:52 | 51.60567 | -0.41671 | 6878 ft | 245 kts | 266° |
| 2026-05-01 13:52 | 51.60443 | -0.44392 | 6747 ft | 243 kts | 266° |
| 2026-05-01 13:52 | 51.60319 | -0.47093 | 6691 ft | 239 kts | 265° |
| 2026-05-01 13:53 | 51.60195 | -0.49759 | 6682 ft | 240 kts | 265° |
| 2026-05-01 13:53 | 51.59943 | -0.55231 | 6240 ft | 247 kts | 266° |
| 2026-05-01 13:53 | 51.59816 | -0.57969 | 5992 ft | 245 kts | 265° |
| 2026-05-01 13:54 | 51.59687 | -0.60698 | 5732 ft | 244 kts | 265° |
| 2026-05-01 13:54 | 51.59565 | -0.63377 | 5493 ft | 243 kts | 265° |
| 2026-05-01 13:54 | 51.59435 | -0.66116 | 5245 ft | 242 kts | 265° |
| 2026-05-01 13:54 | 51.59311 | -0.68778 | 4996 ft | 242 kts | 266° |
| 2026-05-01 13:55 | 51.59185 | -0.71463 | 4745 ft | 240 kts | 265° |
| 2026-05-01 13:55 | 51.59061 | -0.74140 | 4502 ft | 241 kts | 265° |
| 2026-05-01 13:55 | 51.58913 | -0.76855 | 4239 ft | 241 kts | 259° |
| 2026-05-01 13:55 | 51.58215 | -0.79263 | 3981 ft | 240 kts | 229° |
| 2026-05-01 13:56 | 51.56879 | -0.80756 | 3745 ft | 240 kts | 199° |
| 2026-05-01 13:56 | 51.55235 | -0.81072 | 3512 ft | 238 kts | 180° |
| 2026-05-01 13:56 | 51.53560 | -0.81068 | 3255 ft | 237 kts | 180° |
| 2026-05-01 13:56 | 51.51927 | -0.81074 | 3002 ft | 237 kts | 180° |
| 2026-05-01 13:57 | 51.50293 | -0.81086 | 2847 ft | 232 kts | 181° |
| 2026-05-01 13:57 | 51.48717 | -0.80988 | 2827 ft | 222 kts | 167° |
| 2026-05-01 13:57 | 51.47410 | -0.79836 | 2844 ft | 214 kts | 133° |
| 2026-05-01 13:57 | 51.46586 | -0.77858 | 2841 ft | 213 kts | 120° |
| 2026-05-01 13:58 | 51.46044 | -0.75706 | 2844 ft | 211 kts | 93° |
| 2026-05-01 13:58 | 51.46151 | -0.73356 | 2857 ft | 213 kts | 83° |
| 2026-05-01 13:58 | 51.46283 | -0.71014 | 2838 ft | 210 kts | 87° |
| 2026-05-01 13:58 | 51.46338 | -0.68702 | 2876 ft | 205 kts | 89° |
| 2026-05-01 13:59 | 51.46589 | -0.66414 | 2759 ft | 210 kts | 80° |
| 2026-05-01 13:59 | 51.46943 | -0.64258 | 2564 ft | 189 kts | 78° |
| 2026-05-01 13:59 | 51.47267 | -0.62328 | 2254 ft | 170 kts | 80° |
| 2026-05-01 13:59 | 51.47546 | -0.60566 | 1982 ft | 158 kts | 80° |
| 2026-05-01 14:00 | 51.47728 | -0.58828 | 1634 ft | 158 kts | 90° |
| 2026-05-01 14:00 | 51.47769 | -0.57092 | 1362 ft | 155 kts | 94° |
| 2026-05-01 14:00 | 51.47738 | -0.55363 | 1119 ft | 155 kts | 97° |
| 2026-05-01 14:00 | 51.47748 | -0.53638 | 845 ft | 154 kts | 92° |
| 2026-05-01 14:01 | 51.47752 | -0.51915 | 559 ft | 154 kts | 94° |
| 2026-05-01 14:01 | 51.47760 | -0.50204 | 313 ft | 153 kts | 94° |
| 2026-05-01 14:01 | 51.47758 | -0.48515 | 117 ft | 152 kts | 94° |
| 2026-05-01 14:01 | 51.47755 | -0.46872 | 100 ft | 129 kts | 89° |
| 2026-05-01 14:02 | 51.47759 | -0.45825 | 90 ft | 52 kts | 90° |
| 2026-05-01 14:02 | 51.47759 | -0.45637 | 91 ft | 8 kts | 90° |
| 2026-05-01 14:02 | 51.47744 | -0.45532 | 92 ft | 12 kts | 137° |
| 2026-05-01 14:02 | 51.47673 | -0.45473 | 93 ft | 0 kts | 175° |
| 2026-05-01 14:05 | 51.47659 | -0.45471 | 94 ft | 5 kts | 175° |
| 2026-05-01 14:06 | 51.47626 | -0.45486 | 95 ft | 6 kts | 218° |
| 2026-05-01 14:06 | 51.47600 | -0.45561 | 91 ft | 9 kts | 261° |
| 2026-05-01 14:06 | 51.47595 | -0.45688 | 94 ft | 12 kts | 249° |
| 2026-05-01 14:06 | 51.47541 | -0.45735 | 93 ft | 9 kts | 159° |
| 2026-05-01 14:07 | 51.47510 | -0.45653 | 93 ft | 11 kts | 96° |
| 2026-05-01 14:07 | 51.47506 | -0.45509 | 93 ft | 15 kts | 90° |
| 2026-05-01 14:07 | 51.47505 | -0.45323 | 93 ft | 18 kts | 91° |
| 2026-05-01 14:08 | 51.47507 | -0.44943 | 93 ft | 16 kts | 89° |
| 2026-05-01 14:08 | 51.47511 | -0.44746 | 94 ft | 19 kts | 88° |
| 2026-05-01 14:08 | 51.47505 | -0.44621 | 93 ft | 0 kts | 97° |
| 2026-05-01 14:08 | 51.47504 | -0.44611 | 93 ft | 2 kts | 114° |
| 2026-05-01 14:09 | 51.47489 | -0.44580 | 95 ft | 4 kts | 144° |
| 2026-05-01 14:09 | 51.47460 | -0.44570 | 93 ft | 7 kts | 165° |
| 2026-05-01 14:09 | 51.47423 | -0.44560 | 92 ft | 0 kts | 178° |